Time;durP1;ratioP1;P1;durP2;ratioP2;P2;SDS_P1;SDS_P2;PMS_P1;PMS_P2;Temp;Humidity;BMP_temperature;BMP_pressure;BME280_temperature;BME280_humidity;BME280_pressure;Samples;Min_cycle;Max_cycle;Signal;HPM_P1;HPM_P2
2021/11/25 00:00:24;;;;;;;22.20;2.70;;;;;;;;;;4983392;28;20137;-71
2021/11/25 00:02:51;;;;;;;22.13;2.55;;;;;;;;;;4991540;28;20046;-71
2021/11/25 00:05:17;;;;;;;17.20;2.55;;;;;;;;;;4988240;28;20101;-71
2021/11/25 00:07:44;;;;;;;17.42;3.00;;;;;;;;;;4986578;28;20145;-71
2021/11/25 00:10:11;;;;;;;18.85;2.83;;;;;;;;;;4988278;28;20566;-71
2021/11/25 00:12:38;;;;;;;15.18;2.72;;;;;;;;;;4973617;28;20117;-71
2021/11/25 00:15:04;;;;;;;16.13;2.58;;;;;;;;;;4987028;28;20570;-71
2021/11/25 00:17:31;;;;;;;15.82;2.60;;;;;;;;;;4982725;28;20076;-71
2021/11/25 00:19:58;;;;;;;20.63;3.20;;;;;;;;;;4982348;28;20507;-71
2021/11/25 00:22:24;;;;;;;20.10;2.45;;;;;;;;;;4984854;28;20078;-71
2021/11/25 00:24:50;;;;;;;19.35;2.58;;;;;;;;;;4981434;28;20142;-71
2021/11/25 00:27:17;;;;;;;12.60;2.40;;;;;;;;;;4986137;28;20125;-71
2021/11/25 00:29:44;;;;;;;30.43;2.77;;;;;;;;;;4981774;28;20074;-71
2021/11/25 00:32:10;;;;;;;17.60;2.60;;;;;;;;;;4987730;28;20515;-72
2021/11/25 00:34:38;;;;;;;18.42;2.70;;;;;;;;;;4987926;28;20059;-71
2021/11/25 00:37:05;;;;;;;19.75;2.55;;;;;;;;;;4986297;28;20507;-72
2021/11/25 00:39:31;;;;;;;23.33;2.38;;;;;;;;;;4989511;28;20652;-71
2021/11/25 00:41:59;;;;;;;;;;;;;;;;;;4981606;28;20086;-71
2021/11/25 00:44:25;;;;;;;13.02;2.60;;;;;;;;;;4977640;28;19953;-71
2021/11/25 00:46:52;;;;;;;23.10;2.78;;;;;;;;;;4975488;28;20081;-71
2021/11/25 00:49:18;;;;;;;27.60;3.05;;;;;;;;;;4990480;28;20080;-71
2021/11/25 00:51:46;;;;;;;12.93;2.90;;;;;;;;;;4986559;28;20074;-71
2021/11/25 00:54:12;;;;;;;19.70;2.85;;;;;;;;;;4988023;28;20133;-71
2021/11/25 00:56:39;;;;;;;16.23;2.83;;;;;;;;;;4984750;28;20122;-71
2021/11/25 00:59:05;;;;;;;16.58;2.88;;;;;;;;;;4986214;28;20133;-71
2021/11/25 01:01:32;;;;;;;17.20;2.45;;;;;;;;;;4988569;28;20392;-71
2021/11/25 01:03:59;;;;;;;12.40;3.42;;;;;;;;;;4984824;28;20053;-71
2021/11/25 01:06:26;;;;;;;21.48;2.95;;;;;;;;;;4983918;28;20054;-71
2021/11/25 01:08:53;;;;;;;15.43;2.50;;;;;;;;;;4980766;28;20080;-71
2021/11/25 01:11:39;;;;;;;16.77;2.70;;;;;;;;;;4982361;28;20047;-71
2021/11/25 01:14:06;;;;;;;24.95;2.92;;;;;;;;;;4985289;28;20080;-72
2021/11/25 01:16:32;;;;;;;19.17;3.03;;;;;;;;;;4983181;28;20142;-72
2021/11/25 01:18:59;;;;;;;22.15;2.70;;;;;;;;;;4984104;28;20455;-72
2021/11/25 01:21:25;;;;;;;22.20;3.03;;;;;;;;;;4988382;28;20165;-72
2021/11/25 01:23:52;;;;;;;23.60;3.38;;;;;;;;;;4987572;28;20054;-72
2021/11/25 01:26:18;;;;;;;16.83;2.50;;;;;;;;;;4985482;28;20066;-72
2021/11/25 01:28:45;;;;;;;22.23;3.08;;;;;;;;;;4986462;28;20089;-72
2021/11/25 01:31:12;;;;;;;16.90;2.65;;;;;;;;;;4988189;28;20147;-72
2021/11/25 01:33:38;;;;;;;15.45;2.50;;;;;;;;;;4983953;28;20053;-72
2021/11/25 01:36:05;;;;;;;17.33;3.00;;;;;;;;;;4988767;28;20078;-72
2021/11/25 01:38:32;;;;;;;16.48;2.97;;;;;;;;;;4985168;28;20465;-72
2021/11/25 01:40:58;;;;;;;18.55;3.25;;;;;;;;;;4984683;28;20140;-72
2021/11/25 01:43:25;;;;;;;20.05;3.30;;;;;;;;;;4986594;28;20070;-72
2021/11/25 01:45:53;;;;;;;18.55;2.92;;;;;;;;;;4987723;28;20137;-73
2021/11/25 01:48:20;;;;;;;19.83;3.00;;;;;;;;;;4986029;28;20074;-72
2021/11/25 01:50:49;;;;;;;17.20;2.70;;;;;;;;;;4985322;28;20546;-72
2021/11/25 01:53:16;;;;;;;13.85;2.38;;;;;;;;;;4986696;28;20076;-72
2021/11/25 01:55:43;;;;;;;17.77;2.70;;;;;;;;;;4989751;28;20105;-72
2021/11/25 01:58:09;;;;;;;12.27;2.40;;;;;;;;;;4986263;28;20162;-72
2021/11/25 02:00:37;;;;;;;;;;;;;;;;;;4986397;28;20562;-72
2021/11/25 02:03:04;;;;;;;12.48;2.53;;;;;;;;;;4984381;28;19926;-72
2021/11/25 02:05:30;;;;;;;11.57;1.98;;;;;;;;;;4982387;28;20050;-72
2021/11/25 02:07:58;;;;;;;8.93;1.95;;;;;;;;;;4988796;28;20058;-72
2021/11/25 02:10:25;;;;;;;10.82;1.70;;;;;;;;;;4984927;28;20145;-71
2021/11/25 02:12:51;;;;;;;10.07;1.30;;;;;;;;;;4988371;28;20060;-71
2021/11/25 02:15:19;;;;;;;8.53;2.40;;;;;;;;;;4987128;28;20515;-70
2021/11/25 02:17:46;;;;;;;8.75;1.80;;;;;;;;;;4985980;28;20356;-71
2021/11/25 02:20:12;;;;;;;10.13;1.75;;;;;;;;;;4986380;28;20554;-71
2021/11/25 02:22:40;;;;;;;7.75;2.03;;;;;;;;;;4984294;28;20451;-71
2021/11/25 02:25:08;;;;;;;10.73;1.63;;;;;;;;;;4985194;28;20078;-71
2021/11/25 02:27:34;;;;;;;;;;;;;;;;;;4986841;28;20336;-71
2021/11/25 02:30:01;;;;;;;11.25;2.08;;;;;;;;;;4987323;28;19929;-71
2021/11/25 02:32:29;;;;;;;11.52;2.05;;;;;;;;;;4984395;28;20137;-71
2021/11/25 02:34:56;;;;;;;13.73;2.28;;;;;;;;;;4985147;28;20150;-71
2021/11/25 02:37:26;;;;;;;12.67;1.83;;;;;;;;;;4984487;28;20133;-71
2021/11/25 02:39:53;;;;;;;19.58;2.47;;;;;;;;;;4985088;28;20069;-71
2021/11/25 02:42:19;;;;;;;23.02;2.20;;;;;;;;;;4986016;28;20085;-71
2021/11/25 02:44:46;;;;;;;12.73;2.00;;;;;;;;;;4982999;28;20558;-71
2021/11/25 02:47:13;;;;;;;12.00;1.98;;;;;;;;;;4982371;28;20089;-71
2021/11/25 02:49:39;;;;;;;18.85;1.70;;;;;;;;;;4985565;28;20078;-71
2021/11/25 02:52:06;;;;;;;16.48;2.53;;;;;;;;;;4991810;28;20141;-71
2021/11/25 02:54:34;;;;;;;11.43;2.15;;;;;;;;;;4989830;28;20407;-71
2021/11/25 02:57:00;;;;;;;14.02;1.98;;;;;;;;;;4991489;28;20128;-71
2021/11/25 02:59:27;;;;;;;17.33;2.00;;;;;;;;;;4989729;28;20128;-71
2021/11/25 03:01:54;;;;;;;19.27;2.20;;;;;;;;;;4991335;28;20129;-71
2021/11/25 03:04:20;;;;;;;17.83;2.20;;;;;;;;;;4989094;28;20499;-71
2021/11/25 03:06:47;;;;;;;25.98;2.40;;;;;;;;;;4990246;28;20058;-71
2021/11/25 03:09:14;;;;;;;13.60;2.47;;;;;;;;;;4982093;28;20069;-71
2021/11/25 03:11:40;;;;;;;26.58;2.55;;;;;;;;;;4988896;28;20077;-71
2021/11/25 03:14:09;;;;;;;14.05;2.10;;;;;;;;;;4983832;28;20085;-71
2021/11/25 03:16:36;;;;;;;28.15;2.42;;;;;;;;;;4992348;28;20046;-71
2021/11/25 03:19:03;;;;;;;22.15;2.38;;;;;;;;;;4984291;28;20073;-71
2021/11/25 03:21:29;;;;;;;23.35;2.80;;;;;;;;;;4986910;28;20133;-71
2021/11/25 03:23:57;;;;;;;20.83;2.33;;;;;;;;;;4986406;28;20462;-71
2021/11/25 03:26:24;;;;;;;18.67;1.98;;;;;;;;;;4991892;28;20137;-71
2021/11/25 03:28:51;;;;;;;;;;;;;;;;;;4989326;28;20128;-71
2021/11/25 03:31:19;;;;;;;25.75;3.13;;;;;;;;;;4985866;28;19949;-71
2021/11/25 03:33:45;;;;;;;12.32;1.90;;;;;;;;;;4989715;28;20462;-71
2021/11/25 03:36:12;;;;;;;22.00;2.90;;;;;;;;;;4988424;28;20154;-71
2021/11/25 03:38:39;;;;;;;24.08;2.67;;;;;;;;;;4986495;28;20844;-71
2021/11/25 03:41:08;;;;;;;23.63;2.83;;;;;;;;;;4990336;28;20081;-71
2021/11/25 03:43:35;;;;;;;13.15;2.25;;;;;;;;;;4981828;28;20073;-71
2021/11/25 03:46:01;;;;;;;29.33;3.00;;;;;;;;;;4987433;28;20483;-71
2021/11/25 03:48:29;;;;;;;22.43;2.20;;;;;;;;;;4986595;28;20054;-71
2021/11/25 03:50:59;;;;;;;23.15;2.55;;;;;;;;;;4976362;28;20340;-71
2021/11/25 03:53:26;;;;;;;29.35;3.13;;;;;;;;;;4986444;28;20141;-71
2021/11/25 03:55:53;;;;;;;23.02;2.70;;;;;;;;;;4987624;28;20463;-71
2021/11/25 03:58:20;;;;;;;24.45;3.08;;;;;;;;;;4989483;28;20133;-71
2021/11/25 04:00:47;;;;;;;29.50;2.30;;;;;;;;;;4989779;28;20138;-71
2021/11/25 04:03:14;;;;;;;28.23;2.67;;;;;;;;;;4985443;28;20046;-71
2021/11/25 04:05:41;;;;;;;18.75;2.50;;;;;;;;;;4990964;28;20176;-71
2021/11/25 04:08:08;;;;;;;28.98;3.60;;;;;;;;;;4985608;28;20097;-71
2021/11/25 04:10:34;;;;;;;19.73;2.47;;;;;;;;;;4983368;28;20047;-71
2021/11/25 04:13:01;;;;;;;17.27;2.30;;;;;;;;;;4984163;28;20130;-71
2021/11/25 04:15:28;;;;;;;17.00;2.97;;;;;;;;;;4990908;28;20141;-71
2021/11/25 04:17:54;;;;;;;21.05;2.67;;;;;;;;;;4988015;28;20057;-71
2021/11/25 04:20:22;;;;;;;18.10;2.10;;;;;;;;;;4987398;28;20061;-71
2021/11/25 04:22:48;;;;;;;26.27;3.92;;;;;;;;;;4984675;28;20522;-71
2021/11/25 04:25:15;;;;;;;23.73;2.92;;;;;;;;;;4983130;28;20129;-71
2021/11/25 04:27:43;;;;;;;18.55;2.40;;;;;;;;;;4991417;28;20077;-71
2021/11/25 04:30:13;;;;;;;24.73;3.25;;;;;;;;;;4982503;28;20073;-71
2021/11/25 04:35:37;;;;;;;20.30;3.28;;;;;;;;;;4992098;28;20047;-71
2021/11/25 04:38:06;;;;;;;18.60;2.40;;;;;;;;;;4982932;28;20505;-71
2021/11/25 04:40:35;;;;;;;14.43;2.38;;;;;;;;;;4979844;28;20088;-71
2021/11/25 04:43:03;;;;;;;28.02;3.05;;;;;;;;;;4986209;28;20112;-71
2021/11/25 04:45:30;;;;;;;20.33;2.45;;;;;;;;;;4985232;28;20042;-71
2021/11/25 04:47:57;;;;;;;;;;;;;;;;;;4988621;28;20089;-71
2021/11/25 04:50:23;;;;;;;20.58;2.17;;;;;;;;;;4986689;28;19957;-71
2021/11/25 04:52:50;;;;;;;19.23;2.70;;;;;;;;;;4989809;28;20494;-71
2021/11/25 04:55:17;;;;;;;22.52;2.45;;;;;;;;;;4987040;28;20181;-71
2021/11/25 04:57:44;;;;;;;25.80;2.57;;;;;;;;;;4988085;28;20121;-71
2021/11/25 05:00:11;;;;;;;21.63;2.67;;;;;;;;;;4986561;28;20486;-71
2021/11/25 05:02:37;;;;;;;22.05;2.75;;;;;;;;;;4988568;28;20130;-71
2021/11/25 05:05:05;;;;;;;24.00;2.53;;;;;;;;;;4982810;28;20518;-71
2021/11/25 05:07:31;;;;;;;19.75;2.45;;;;;;;;;;4981843;28;20242;-71
2021/11/25 05:09:58;;;;;;;17.67;2.23;;;;;;;;;;4987447;28;20160;-71
2021/11/25 05:12:25;;;;;;;22.27;3.60;;;;;;;;;;4983038;28;20717;-71
2021/11/25 05:14:52;;;;;;;18.88;2.40;;;;;;;;;;4984792;28;20046;-70
2021/11/25 05:17:18;;;;;;;22.50;3.28;;;;;;;;;;4984149;28;20566;-70
2021/11/25 05:19:45;;;;;;;28.23;2.70;;;;;;;;;;4989429;28;20111;-71
2021/11/25 05:22:11;;;;;;;24.63;3.13;;;;;;;;;;4987276;28;20097;-70
2021/11/25 05:24:39;;;;;;;12.73;2.60;;;;;;;;;;4983266;28;20129;-70
2021/11/25 05:27:06;;;;;;;26.70;3.05;;;;;;;;;;4982050;28;20077;-71
2021/11/25 05:29:32;;;;;;;16.63;2.93;;;;;;;;;;4981618;28;20121;-71
2021/11/25 05:31:59;;;;;;;22.73;3.17;;;;;;;;;;4987114;28;20570;-71
2021/11/25 05:34:25;;;;;;;19.92;2.58;;;;;;;;;;4985002;28;20108;-70
2021/11/25 05:36:52;;;;;;;21.92;2.38;;;;;;;;;;4991892;28;20081;-70
2021/11/25 05:39:19;;;;;;;18.20;2.83;;;;;;;;;;4986190;28;20050;-71
2021/11/25 05:41:45;;;;;;;21.75;2.50;;;;;;;;;;4984046;28;20490;-71
2021/11/25 05:44:12;;;;;;;21.63;2.50;;;;;;;;;;4985341;28;20050;-71
2021/11/25 05:46:39;;;;;;;30.92;3.33;;;;;;;;;;4980961;28;20515;-71
2021/11/25 05:49:05;;;;;;;25.15;2.60;;;;;;;;;;4976724;28;20121;-71
2021/11/25 05:51:33;;;;;;;22.52;3.53;;;;;;;;;;4980120;28;20102;-71
2021/11/25 05:54:00;;;;;;;23.92;2.60;;;;;;;;;;4975889;28;20151;-71
2021/11/25 05:56:26;;;;;;;18.23;2.50;;;;;;;;;;4985923;28;20467;-71
2021/11/25 05:58:55;;;;;;;16.27;3.13;;;;;;;;;;4986829;28;20051;-71
2021/11/25 06:01:22;;;;;;;23.48;2.65;;;;;;;;;;4981801;28;20149;-71
2021/11/25 06:03:49;;;;;;;21.73;2.20;;;;;;;;;;4985216;28;20473;-70
2021/11/25 06:06:16;;;;;;;21.95;2.95;;;;;;;;;;4979698;28;20097;-71
2021/11/25 06:08:43;;;;;;;20.95;3.00;;;;;;;;;;4979590;28;20090;-71
2021/11/25 06:11:09;;;;;;;19.90;2.08;;;;;;;;;;4979601;28;20082;-71
2021/11/25 06:13:36;;;;;;;20.42;3.63;;;;;;;;;;4984814;28;20074;-71
2021/11/25 06:16:03;;;;;;;26.52;3.15;;;;;;;;;;4978218;28;20082;-71
2021/11/25 06:18:29;;;;;;;17.80;2.63;;;;;;;;;;4981026;28;20046;-70
2021/11/25 06:20:56;;;;;;;23.40;3.20;;;;;;;;;;4981354;28;20104;-71
2021/11/25 06:23:23;;;;;;;20.25;2.28;;;;;;;;;;4982942;28;20105;-71
2021/11/25 06:25:50;;;;;;;25.55;2.92;;;;;;;;;;4990049;28;20537;-71
2021/11/25 06:28:16;;;;;;;18.15;2.30;;;;;;;;;;4985116;28;20081;-70
2021/11/25 06:30:43;;;;;;;27.73;2.83;;;;;;;;;;4986684;28;20310;-71
2021/11/25 06:33:10;;;;;;;22.00;2.80;;;;;;;;;;4986970;28;20142;-71
2021/11/25 06:35:38;;;;;;;19.92;2.78;;;;;;;;;;4984566;28;20117;-71
2021/11/25 06:38:05;;;;;;;24.52;2.83;;;;;;;;;;4984188;28;20093;-71
2021/11/25 06:40:33;;;;;;;43.58;4.78;;;;;;;;;;4983506;28;20047;-70
2021/11/25 06:43:01;;;;;;;23.52;3.22;;;;;;;;;;4983314;28;20056;-70
2021/11/25 06:45:27;;;;;;;33.53;3.22;;;;;;;;;;4982377;28;20137;-70
2021/11/25 06:47:54;;;;;;;28.25;2.58;;;;;;;;;;4974593;28;20097;-71
2021/11/25 06:50:22;;;;;;;21.85;2.65;;;;;;;;;;4987726;28;20060;-70
2021/11/25 06:52:49;;;;;;;18.63;2.50;;;;;;;;;;4984055;28;20088;-71
2021/11/25 06:55:16;;;;;;;28.87;2.77;;;;;;;;;;4988069;28;20137;-70
2021/11/25 06:57:47;;;;;;;20.70;2.97;;;;;;;;;;4985674;28;20054;-71
2021/11/25 07:00:15;;;;;;;21.50;2.30;;;;;;;;;;4989887;28;20457;-71
2021/11/25 07:02:41;;;;;;;;;;;;;;;;;;4981692;28;20155;-71
2021/11/25 07:05:08;;;;;;;23.20;2.75;;;;;;;;;;4982766;28;20337;-71
2021/11/25 07:07:35;;;;;;;25.40;3.05;;;;;;;;;;4986515;28;20097;-70
2021/11/25 07:10:03;;;;;;;28.73;2.90;;;;;;;;;;4975490;28;20165;-70
2021/11/25 07:12:29;;;;;;;32.35;2.65;;;;;;;;;;4981396;28;20085;-70
2021/11/25 07:14:56;;;;;;;28.13;2.78;;;;;;;;;;4988749;28;20499;-70
2021/11/25 07:17:22;;;;;;;31.45;3.05;;;;;;;;;;4989861;28;20094;-70
2021/11/25 07:19:49;;;;;;;21.90;2.25;;;;;;;;;;4965272;28;20050;-70
2021/11/25 07:22:16;;;;;;;35.55;2.80;;;;;;;;;;4986180;28;20109;-71
2021/11/25 07:24:42;;;;;;;25.60;3.45;;;;;;;;;;4988738;28;20125;-70
2021/11/25 07:27:09;;;;;;;30.83;3.75;;;;;;;;;;4990145;28;20066;-70
2021/11/25 07:29:36;;;;;;;25.15;2.70;;;;;;;;;;4985845;28;20081;-70
2021/11/25 07:32:03;;;;;;;46.30;3.13;;;;;;;;;;4990213;28;20173;-70
2021/11/25 07:34:30;;;;;;;28.02;2.70;;;;;;;;;;4980057;28;20086;-70
2021/11/25 07:36:57;;;;;;;22.42;2.80;;;;;;;;;;4980896;28;20054;-70
2021/11/25 07:39:29;;;;;;;25.77;2.67;;;;;;;;;;4979841;28;20043;-70
2021/11/25 07:41:56;;;;;;;18.70;3.10;;;;;;;;;;4981699;28;20497;-70
2021/11/25 07:44:23;;;;;;;25.23;2.58;;;;;;;;;;4978996;28;20086;-71
2021/11/25 07:46:50;;;;;;;28.63;3.20;;;;;;;;;;4984872;28;20054;-70
2021/11/25 07:49:16;;;;;;;37.15;3.92;;;;;;;;;;4981779;28;20134;-70
2021/11/25 07:51:43;;;;;;;31.40;2.90;;;;;;;;;;4984510;28;20078;-70
2021/11/25 07:54:10;;;;;;;22.63;2.38;;;;;;;;;;4981775;28;20097;-70
2021/11/25 07:56:38;;;;;;;30.75;3.08;;;;;;;;;;4990515;28;20485;-70
2021/11/25 07:59:05;;;;;;;21.52;2.95;;;;;;;;;;4986908;28;20494;-70
2021/11/25 08:01:32;;;;;;;25.15;2.95;;;;;;;;;;4982547;28;20082;-70
2021/11/25 08:03:59;;;;;;;23.65;2.85;;;;;;;;;;4980840;28;20094;-70
2021/11/25 08:06:26;;;;;;;32.72;3.10;;;;;;;;;;4985147;28;20141;-70
2021/11/25 08:08:53;;;;;;;27.87;2.70;;;;;;;;;;4981674;28;20090;-70
2021/11/25 08:11:19;;;;;;;34.90;2.80;;;;;;;;;;4985879;28;20727;-70
2021/11/25 08:13:46;;;;;;;17.30;2.50;;;;;;;;;;4982256;28;20081;-70
2021/11/25 08:16:15;;;;;;;22.13;2.50;;;;;;;;;;4983012;28;20590;-70
2021/11/25 08:18:42;;;;;;;19.02;2.47;;;;;;;;;;4986813;28;20129;-70
2021/11/25 08:21:09;;;;;;;41.97;3.50;;;;;;;;;;4983493;28;20569;-70
2021/11/25 08:23:36;;;;;;;26.77;2.88;;;;;;;;;;4988198;28;20509;-70
2021/11/25 08:26:02;;;;;;;31.10;3.10;;;;;;;;;;4985445;28;20078;-70
2021/11/25 08:28:36;;;;;;;27.83;3.17;;;;;;;;;;4978333;28;20046;-70
2021/11/25 08:31:02;;;;;;;24.00;3.42;;;;;;;;;;4987963;28;20100;-71
2021/11/25 08:33:29;;;;;;;41.30;3.17;;;;;;;;;;4987771;28;20043;-70
2021/11/25 08:35:56;;;;;;;37.22;3.40;;;;;;;;;;4984642;28;20145;-70
2021/11/25 08:38:23;;;;;;;35.88;3.15;;;;;;;;;;4987821;28;20407;-70
2021/11/25 08:40:49;;;;;;;32.03;3.47;;;;;;;;;;4982421;28;20043;-70
2021/11/25 08:43:17;;;;;;;36.28;3.85;;;;;;;;;;4983438;28;20471;-70
2021/11/25 08:45:44;;;;;;;29.48;4.35;;;;;;;;;;4981160;28;20403;-70
2021/11/25 08:48:10;;;;;;;33.08;4.30;;;;;;;;;;4970089;28;20046;-70
2021/11/25 08:50:37;;;;;;;44.97;3.60;;;;;;;;;;4977526;28;20339;-70
2021/11/25 08:53:04;;;;;;;35.15;3.03;;;;;;;;;;4977995;28;20514;-70
2021/11/25 08:55:35;;;;;;;31.85;3.58;;;;;;;;;;4981743;28;20274;-70
2021/11/25 08:58:02;;;;;;;23.50;3.25;;;;;;;;;;4982634;28;20042;-70
2021/11/25 09:00:29;;;;;;;19.45;2.85;;;;;;;;;;4983624;28;20141;-70
2021/11/25 09:02:56;;;;;;;22.73;3.20;;;;;;;;;;4982428;28;20046;-70
2021/11/25 09:05:24;;;;;;;26.52;3.30;;;;;;;;;;4981153;28;20473;-70
2021/11/25 09:07:50;;;;;;;26.10;3.65;;;;;;;;;;4981094;28;20072;-70
2021/11/25 09:10:17;;;;;;;32.75;3.33;;;;;;;;;;4979994;28;20070;-70
2021/11/25 09:12:44;;;;;;;18.80;2.97;;;;;;;;;;4988429;28;20146;-71
2021/11/25 09:15:21;;;;;;;22.10;2.63;;;;;;;;;;4983469;28;20502;-70
2021/11/25 09:17:51;;;;;;;26.17;3.55;;;;;;;;;;4982080;28;20055;-71
2021/11/25 09:20:23;;;;;;;29.85;3.10;;;;;;;;;;4979960;28;20047;-70
2021/11/25 09:22:50;;;;;;;16.10;2.53;;;;;;;;;;4979766;28;20077;-71
2021/11/25 09:25:16;;;;;;;10.77;2.28;;;;;;;;;;4982156;28;20129;-71
2021/11/25 09:27:45;;;;;;;10.38;1.98;;;;;;;;;;4986891;28;20058;-71
2021/11/25 09:30:12;;;;;;;15.93;2.22;;;;;;;;;;4983176;28;20082;-70
2021/11/25 09:32:39;;;;;;;15.85;1.83;;;;;;;;;;4984560;28;20078;-71
2021/11/25 09:35:05;;;;;;;22.77;2.40;;;;;;;;;;4993280;28;20149;-71
2021/11/25 09:37:32;;;;;;;20.52;2.35;;;;;;;;;;5008710;28;20057;-71
2021/11/25 09:39:58;;;;;;;25.70;3.25;;;;;;;;;;4999622;28;20141;-71
2021/11/25 09:42:25;;;;;;;20.55;2.58;;;;;;;;;;4998490;28;20137;-70
2021/11/25 09:44:52;;;;;;;14.07;2.53;;;;;;;;;;4998554;28;20137;-70
2021/11/25 09:47:18;;;;;;;18.53;2.30;;;;;;;;;;5002527;28;20537;-70
2021/11/25 09:49:45;;;;;;;17.25;2.70;;;;;;;;;;5003087;28;20065;-70
2021/11/25 09:52:12;;;;;;;18.42;2.00;;;;;;;;;;5004895;28;20049;-71
2021/11/25 09:54:39;;;;;;;16.20;3.22;;;;;;;;;;4999761;28;20445;-70
2021/11/25 09:57:06;;;;;;;20.83;2.42;;;;;;;;;;5000206;28;20055;-70
2021/11/25 09:59:32;;;;;;;17.70;2.45;;;;;;;;;;5003429;28;20137;-70
2021/11/25 10:01:59;;;;;;;16.52;2.95;;;;;;;;;;4998756;28;20149;-71
2021/11/25 10:04:27;;;;;;;16.13;2.00;;;;;;;;;;4998985;28;20650;-70
2021/11/25 10:06:55;;;;;;;15.50;2.60;;;;;;;;;;4992961;28;20111;-70
2021/11/25 10:09:34;;;;;;;10.10;2.10;;;;;;;;;;4999409;28;20089;-70
2021/11/25 10:12:02;;;;;;;10.82;1.98;;;;;;;;;;5006290;28;20133;-70
2021/11/25 10:14:37;;;;;;;22.10;2.53;;;;;;;;;;4991300;28;20089;-71
2021/11/25 10:17:04;;;;;;;18.02;2.15;;;;;;;;;;5001982;28;20545;-71
2021/11/25 10:19:30;;;;;;;17.88;2.40;;;;;;;;;;5004073;28;20060;-70
2021/11/25 10:21:58;;;;;;;13.65;2.05;;;;;;;;;;5002040;28;20077;-70
2021/11/25 10:24:33;;;;;;;12.75;2.22;;;;;;;;;;5001631;28;20069;-71
2021/11/25 10:27:31;;;;;;;8.35;2.10;;;;;;;;;;5002275;28;20146;-71
2021/11/25 10:30:09;;;;;;;15.00;1.80;;;;;;;;;;4961116;28;20502;-71
2021/11/25 10:32:36;;;;;;;14.90;2.30;;;;;;;;;;4997900;28;20078;-71
2021/11/25 10:35:23;;;;;;;16.90;2.85;;;;;;;;;;4993656;28;20133;-70
2021/11/25 10:38:37;;;;;;;14.38;1.80;;;;;;;;;;4978673;28;20137;-71
2021/11/25 10:40:40;;;;;;;19.58;2.10;;;;;;;;;;4970113;28;20046;-71
2021/11/25 10:43:27;;;;;;;15.95;1.98;;;;;;;;;;4979881;28;20142;-71
2021/11/25 10:45:54;;;;;;;11.63;2.20;;;;;;;;;;4977801;28;20080;-70
2021/11/25 10:48:28;;;;;;;20.70;2.83;;;;;;;;;;4983434;28;20046;-71
2021/11/25 10:50:55;;;;;;;13.80;2.42;;;;;;;;;;4986180;28;20167;-71
2021/11/25 10:53:21;;;;;;;14.75;2.35;;;;;;;;;;4975066;28;20466;-71
2021/11/25 10:55:48;;;;;;;16.95;2.78;;;;;;;;;;4987800;28;20126;-72
2021/11/25 10:58:16;;;;;;;12.25;2.22;;;;;;;;;;4974026;28;20113;-71
2021/11/25 11:00:44;;;;;;;11.27;2.45;;;;;;;;;;4980655;28;20086;-71
2021/11/25 11:03:10;;;;;;;;;;;;;;;;;;4978761;28;20499;-71
2021/11/25 11:05:48;;;;;;;10.80;2.17;;;;;;;;;;4980465;28;19926;-72
2021/11/25 11:08:16;;;;;;;16.88;2.00;;;;;;;;;;4986766;28;20042;-71
2021/11/25 11:10:42;;;;;;;;;;;;;;;;;;4984955;28;20132;-71
2021/11/25 11:15:50;;;;;;;11.43;2.10;;;;;;;;;;4985084;28;20481;-71
2021/11/25 11:20:48;;;;;;;15.15;2.22;;;;;;;;;;4981800;28;20093;-71
2021/11/25 11:23:17;;;;;;;7.65;1.83;;;;;;;;;;4979944;28;20054;-71
2021/11/25 11:25:44;;;;;;;9.93;1.92;;;;;;;;;;4975459;28;20047;-71
2021/11/25 11:28:11;;;;;;;8.90;2.17;;;;;;;;;;4981223;28;20093;-72
2021/11/25 11:30:38;;;;;;;13.88;2.20;;;;;;;;;;4987403;28;20077;-71
2021/11/25 11:33:07;;;;;;;19.88;2.28;;;;;;;;;;4985145;28;20471;-71
2021/11/25 11:35:34;;;;;;;15.43;2.70;;;;;;;;;;4983572;28;20108;-71
2021/11/25 11:38:02;;;;;;;18.67;2.60;;;;;;;;;;4984028;28;20380;-71
2021/11/25 11:40:32;;;;;;;20.17;2.40;;;;;;;;;;4987331;28;20046;-71
2021/11/25 11:42:59;;;;;;;13.80;2.70;;;;;;;;;;4988607;28;20082;-71
2021/11/25 11:45:26;;;;;;;10.00;1.88;;;;;;;;;;4987393;28;20081;-71
2021/11/25 11:47:54;;;;;;;;;;;;;;;;;;4983805;28;20494;-70
2021/11/25 11:50:31;;;;;;;13.65;2.33;;;;;;;;;;4979023;28;19967;-71
2021/11/25 11:53:00;;;;;;;18.92;2.40;;;;;;;;;;4992361;28;20114;-70
2021/11/25 11:55:35;;;;;;;13.45;2.30;;;;;;;;;;4984144;28;20047;-71
2021/11/25 11:58:31;;;;;;;10.57;2.33;;;;;;;;;;4984786;28;20387;-70
2021/11/25 12:01:17;;;;;;;17.50;2.50;;;;;;;;;;4975039;28;20150;-70
2021/11/25 12:03:44;;;;;;;16.65;2.60;;;;;;;;;;4987013;28;20055;-70
2021/11/25 12:06:27;;;;;;;18.73;2.85;;;;;;;;;;4985651;28;20464;-70
2021/11/25 12:08:54;;;;;;;14.38;2.70;;;;;;;;;;4982998;28;20073;-70
2021/11/25 12:11:21;;;;;;;16.30;2.97;;;;;;;;;;4991258;28;20794;-70
2021/11/25 12:13:55;;;;;;;12.45;1.83;;;;;;;;;;4981232;28;20074;-70
2021/11/25 12:16:22;;;;;;;19.35;2.70;;;;;;;;;;4977883;28;20109;-71
2021/11/25 12:18:52;;;;;;;17.92;2.70;;;;;;;;;;4980941;28;20413;-70
2021/11/25 12:21:37;;;;;;;20.20;3.10;;;;;;;;;;4979795;28;20109;-70
2021/11/25 12:24:27;;;;;;;17.58;2.70;;;;;;;;;;4978847;28;20047;-70
2021/11/25 12:27:17;;;;;;;19.98;2.40;;;;;;;;;;4975185;28;20082;-70
2021/11/25 12:29:46;;;;;;;21.02;2.85;;;;;;;;;;4985074;28;20697;-70
2021/11/25 12:32:28;;;;;;;20.73;3.10;;;;;;;;;;4986116;28;20164;-70
2021/11/25 12:34:57;;;;;;;14.90;2.55;;;;;;;;;;4980973;28;20100;-71
2021/11/25 12:37:41;;;;;;;20.23;2.40;;;;;;;;;;4984983;28;20137;-71
2021/11/25 12:40:14;;;;;;;9.85;1.90;;;;;;;;;;4980743;28;20082;-71
2021/11/25 12:42:41;;;;;;;20.55;2.28;;;;;;;;;;4980865;28;20525;-71
2021/11/25 12:45:19;;;;;;;14.00;2.50;;;;;;;;;;4980219;28;20065;-71
2021/11/25 12:47:46;;;;;;;8.27;2.40;;;;;;;;;;4981094;28;20051;-70
2021/11/25 12:50:20;;;;;;;7.95;2.25;;;;;;;;;;4982484;28;20086;-71
2021/11/25 12:52:47;;;;;;;13.63;2.03;;;;;;;;;;4984932;28;20074;-71
2021/11/25 12:55:15;;;;;;;9.48;3.67;;;;;;;;;;4979636;28;20089;-70
2021/11/25 12:57:41;;;;;;;;;;;;;;;;;;4982890;28;20137;-71
2021/11/25 13:00:16;;;;;;;7.78;1.50;;;;;;;;;;4988667;28;19977;-72
2021/11/25 13:02:43;;;;;;;14.27;1.80;;;;;;;;;;4983124;28;20086;-72
2021/11/25 13:05:10;;;;;;;6.10;1.47;;;;;;;;;;4980474;28;20520;-72
2021/11/25 13:07:47;;;;;;;11.57;1.90;;;;;;;;;;4983132;28;20093;-72
2021/11/25 13:10:27;;;;;;;13.38;2.25;;;;;;;;;;4977355;28;20569;-73
2021/11/25 13:13:10;;;;;;;13.38;1.77;;;;;;;;;;4985518;28;20539;-74
2021/11/25 13:15:38;;;;;;;12.15;2.03;;;;;;;;;;4984314;28;20549;-74
2021/11/25 13:18:04;;;;;;;8.80;1.90;;;;;;;;;;4979842;28;20511;-72
2021/11/25 13:20:57;;;;;;;6.37;1.47;;;;;;;;;;4984630;28;20141;-72
2021/11/25 13:23:24;;;;;;;5.75;1.85;;;;;;;;;;4977242;28;20085;-72
2021/11/25 13:25:52;;;;;;;7.45;1.80;;;;;;;;;;4971211;28;20074;-72
2021/11/25 13:28:24;;;;;;;4.63;1.52;;;;;;;;;;4976121;28;20135;-72
2021/11/25 13:31:18;;;;;;;12.45;2.65;;;;;;;;;;4982214;28;20130;-71
2021/11/25 13:34:02;;;;;;;4.38;1.88;;;;;;;;;;4982532;28;20042;-72
2021/11/25 13:36:33;;;;;;;4.63;1.98;;;;;;;;;;4978959;28;20146;-71
2021/11/25 13:39:00;;;;;;;6.57;2.05;;;;;;;;;;4980597;28;20142;-72
2021/11/25 13:41:26;;;;;;;5.50;2.30;;;;;;;;;;4977969;28;20474;-71
2021/11/25 13:43:57;;;;;;;10.68;2.75;;;;;;;;;;4980529;28;20133;-71
2021/11/25 13:46:33;;;;;;;8.52;2.58;;;;;;;;;;4983947;28;20078;-71
2021/11/25 13:49:01;;;;;;;10.88;2.50;;;;;;;;;;4984805;28;20050;-71
2021/11/25 13:51:27;;;;;;;5.97;2.13;;;;;;;;;;4980588;28;20074;-71
2021/11/25 13:54:07;;;;;;;5.57;2.43;;;;;;;;;;4989494;28;20108;-71
2021/11/25 13:56:34;;;;;;;8.20;2.28;;;;;;;;;;4981484;28;20494;-71
2021/11/25 13:59:03;;;;;;;8.50;1.80;;;;;;;;;;4979016;28;20082;-72
2021/11/25 14:01:29;;;;;;;8.93;2.45;;;;;;;;;;4978275;28;20141;-72
2021/11/25 14:04:00;;;;;;;8.27;2.00;;;;;;;;;;4982903;28;20052;-72
2021/11/25 14:06:28;;;;;;;3.58;1.40;;;;;;;;;;4978863;28;20152;-72
2021/11/25 14:09:02;;;;;;;5.60;1.75;;;;;;;;;;4981832;28;20145;-72
2021/11/25 14:11:29;;;;;;;7.20;1.50;;;;;;;;;;4982015;28;20133;-72
2021/11/25 14:14:04;;;;;;;5.00;1.50;;;;;;;;;;4986113;28;20565;-72
2021/11/25 14:16:31;;;;;;;4.82;1.80;;;;;;;;;;4984652;28;20049;-72
2021/11/25 14:19:10;;;;;;;10.05;1.45;;;;;;;;;;4976543;28;20089;-72
2021/11/25 14:21:42;;;;;;;2.05;1.33;;;;;;;;;;4983749;28;20134;-72
2021/11/25 14:24:13;;;;;;;5.25;1.00;;;;;;;;;;4980432;28;20111;-72
2021/11/25 14:32:23;;;;;;;5.65;1.30;;;;;;;;;;4981851;28;20086;-71
2021/11/25 14:34:50;;;;;;;4.63;1.10;;;;;;;;;;4984742;28;20086;-71
2021/11/25 14:37:18;;;;;;;5.95;1.25;;;;;;;;;;4984261;28;20451;-72
2021/11/25 14:39:46;;;;;;;5.25;1.33;;;;;;;;;;4983548;28;20105;-72
2021/11/25 14:42:14;;;;;;;2.05;0.80;;;;;;;;;;4983401;28;20078;-72
2021/11/25 14:44:40;;;;;;;5.32;1.15;;;;;;;;;;4984858;28;20059;-72
2021/11/25 14:47:10;;;;;;;1.85;0.90;;;;;;;;;;4981920;28;20051;-72
2021/11/25 14:49:37;;;;;;;6.55;1.30;;;;;;;;;;4982685;28;20046;-72
2021/11/25 14:52:09;;;;;;;8.18;1.58;;;;;;;;;;4989637;28;20070;-71
2021/11/25 14:54:36;;;;;;;4.40;0.90;;;;;;;;;;4983745;28;20594;-71
2021/11/25 14:57:03;;;;;;;7.60;1.25;;;;;;;;;;4981611;28;20078;-71